Time;durP1;ratioP1;P1;durP2;ratioP2;P2;SDS_P1;SDS_P2;PMS_P1;PMS_P2;Temp;Humidity;BMP_temperature;BMP_pressure;BME280_temperature;BME280_humidity;BME280_pressure;Samples;Min_cycle;Max_cycle;Signal;HPM_P1;HPM_P2
2023/06/23 00:01:20;;;;;;;;;;;;;;;20.78;66.82;101206.83;107249;1254;99694;-67
2023/06/23 00:03:48;;;;;;;;;;;;;;;20.78;66.47;101203.52;107353;1254;99214;-67
2023/06/23 00:06:17;;;;;;;;;;;;;;;20.80;66.80;101206.05;107365;1254;112726;-66
2023/06/23 00:08:47;;;;;;;;;;;;;;;20.80;66.99;101211.14;107395;1254;109771;-66
2023/06/23 00:11:15;;;;;;;;;;;;;;;20.79;66.56;101208.17;107411;1254;108954;-67
2023/06/23 00:13:43;;;;;;;;;;;;;;;20.78;66.65;101206.97;107413;1254;99227;-66
2023/06/23 00:16:11;;;;;;;;;;;;;;;20.77;66.56;101208.67;107417;1254;99166;-66
2023/06/23 00:18:40;;;;;;;;;;;;;;;20.77;66.92;101210.39;107432;1254;113099;-67
2023/06/23 00:21:09;;;;;;;;;;;;;;;20.77;66.57;101209.51;107439;1254;109067;-67
2023/06/23 00:23:39;;;;;;;;;;;;;;;20.74;66.37;101206.40;107404;1257;108163;-67
2023/06/23 00:26:08;;;;;;;;;;;;;;;20.68;66.76;101204.95;107418;1254;99189;-66
2023/06/23 00:28:37;;;;;;;;;;;;;;;20.62;66.75;101205.31;107378;1257;99243;-65
2023/06/23 00:31:07;;;;;;;;;;;;;;;20.58;66.80;101203.92;107392;1254;112467;-66
2023/06/23 00:33:36;;;;;;;;;;;;;;;20.56;66.92;101200.06;107404;1253;109404;-67
2023/06/23 00:36:04;;;;;;;;;;;;;;;20.53;66.98;101197.85;107326;1254;108675;-66
2023/06/23 00:38:33;;;;;;;;;;;;;;;20.50;66.97;101192.85;107535;1253;99275;-66
2023/06/23 00:41:02;;;;;;;;;;;;;;;20.45;67.04;101197.71;107434;1254;99058;-67
2023/06/23 00:43:31;;;;;;;;;;;;;;;20.43;67.31;101196.51;107391;1254;113569;-66
2023/06/23 00:46:15;;;;;;;;;;;;;;;20.43;67.31;101197.30;107377;1254;109686;-66
2023/06/23 00:48:44;;;;;;;;;;;;;;;20.43;67.22;101196.39;107470;1254;107695;-67
2023/06/23 00:51:14;;;;;;;;;;;;;;;20.42;66.99;101195.91;107416;1253;99173;-67
2023/06/23 00:53:49;;;;;;;;;;;;;;;20.40;67.18;101190.24;107407;1254;99245;-67
2023/06/23 00:56:23;;;;;;;;;;;;;;;20.29;67.51;101191.04;107423;1254;113168;-66
2023/06/23 00:58:52;;;;;;;;;;;;;;;20.24;67.53;101187.81;107416;1254;110358;-68
2023/06/23 01:01:21;;;;;;;;;;;;;;;20.21;67.93;101183.96;107371;1254;108585;-72
2023/06/23 01:03:50;;;;;;;;;;;;;;;20.22;67.97;101180.77;107437;1254;99265;-66
2023/06/23 01:06:37;;;;;;;;;;;;;;;20.20;67.92;101178.44;107426;1254;99045;-67
2023/06/23 01:09:12;;;;;;;;;;;;;;;20.13;67.58;101175.32;107439;1254;112873;-69
2023/06/23 01:11:45;;;;;;;;;;;;;;;20.07;67.73;101178.89;107427;1254;109983;-68
2023/06/23 01:14:23;;;;;;;;;;;;;;;20.07;68.07;101176.21;107391;1254;107599;-68
2023/06/23 01:17:11;;;;;;;;;;;;;;;20.07;68.49;101174.98;107279;1254;99228;-67
2023/06/23 01:20:21;;;;;;;;;;;;;;;20.07;68.49;101178.05;107341;1254;99071;-68
2023/06/23 01:22:49;;;;;;;;;;;;;;;20.06;68.76;101173.39;107276;1254;112777;-67
2023/06/23 01:25:27;;;;;;;;;;;;;;;20.07;68.66;101176.69;107293;1259;109849;-66
2023/06/23 01:27:55;;;;;;;;;;;;;;;20.08;68.58;101175.20;107385;1254;108790;-67
2023/06/23 01:30:26;;;;;;;;;;;;;;;20.04;68.24;101176.42;107382;1254;99246;-66
2023/06/23 01:32:58;;;;;;;;;;;;;;;19.99;67.93;101180.02;107330;1254;99134;-65
2023/06/23 01:35:28;;;;;;;;;;;;;;;19.93;67.98;101181.56;107434;1254;113430;-65
2023/06/23 01:38:02;;;;;;;;;;;;;;;19.87;68.01;101179.68;107365;1254;109509;-65
2023/06/23 01:40:32;;;;;;;;;;;;;;;19.82;68.18;101176.88;107216;1254;106683;-67
2023/06/23 01:43:06;;;;;;;;;;;;;;;19.79;68.59;101176.91;107437;1254;99256;-67
2023/06/23 01:45:39;;;;;;;;;;;;;;;19.76;68.74;101177.62;107467;1253;99185;-68
2023/06/23 01:48:10;;;;;;;;;;;;;;;19.73;69.38;101179.98;107432;1253;113363;-65
2023/06/23 01:50:40;;;;;;;;;;;;;;;19.64;69.11;101177.33;107452;1254;109316;-67
2023/06/23 01:53:10;;;;;;;;;;;;;;;19.62;69.49;101178.14;107444;1254;108304;-67
2023/06/23 01:55:39;;;;;;;;;;;;;;;19.60;69.41;101178.56;107501;1253;99203;-67
2023/06/23 01:58:07;;;;;;;;;;;;;;;19.57;69.77;101178.36;107421;1254;99343;-66
2023/06/23 02:00:36;;;;;;;;;;;;;;;19.53;69.67;101176.11;107352;1254;112249;-67
2023/06/23 02:03:05;;;;;;;;;;;;;;;19.52;69.76;101179.30;107469;1253;108981;-67
2023/06/23 02:05:35;;;;;;;;;;;;;;;19.52;69.58;101187.00;107378;1254;107262;-66
2023/06/23 02:08:06;;;;;;;;;;;;;;;19.51;69.58;101186.58;107393;1257;99638;-67
2023/06/23 02:10:35;;;;;;;;;;;;;;;19.49;69.51;101190.95;107471;1254;99253;-67
2023/06/23 02:13:05;;;;;;;;;;;;;;;19.46;69.36;101192.52;107434;1254;113116;-65
2023/06/23 02:15:34;;;;;;;;;;;;;;;19.40;69.51;101190.02;107338;1253;108978;-66
2023/06/23 02:18:03;;;;;;;;;;;;;;;19.36;69.73;101188.14;107432;1254;109259;-66
2023/06/23 02:20:32;;;;;;;;;;;;;;;19.34;69.74;101185.42;107463;1254;99368;-65
2023/06/23 02:23:01;;;;;;;;;;;;;;;19.32;69.63;101189.33;107415;1254;99295;-65
2023/06/23 02:25:30;;;;;;;;;;;;;;;19.31;69.60;101186.11;107483;1254;112299;-67
2023/06/23 02:28:00;;;;;;;;;;;;;;;19.29;69.65;101180.50;107517;1254;108528;-66
2023/06/23 02:30:29;;;;;;;;;;;;;;;19.28;69.80;101181.66;107390;1254;107632;-65
2023/06/23 02:32:57;;;;;;;;;;;;;;;19.28;70.06;101181.11;107350;1254;99251;-65
2023/06/23 02:35:25;;;;;;;;;;;;;;;19.29;70.55;101179.88;107317;1254;99070;-65
2023/06/23 02:37:59;;;;;;;;;;;;;;;19.31;70.59;101178.61;107409;1254;113198;-65
2023/06/23 02:40:29;;;;;;;;;;;;;;;19.33;70.95;101180.20;107462;1254;109350;-65
2023/06/23 02:43:01;;;;;;;;;;;;;;;19.35;71.11;101184.16;107248;1255;109508;-67
2023/06/23 02:45:33;;;;;;;;;;;;;;;19.35;70.78;101185.52;107457;1254;99014;-67
2023/06/23 02:48:04;;;;;;;;;;;;;;;19.35;70.53;101183.14;107444;1254;99161;-67
2023/06/23 02:50:35;;;;;;;;;;;;;;;19.33;71.46;101184.48;107301;1257;113425;-67
2023/06/23 02:53:06;;;;;;;;;;;;;;;19.30;71.27;101185.60;107364;1254;109608;-66
2023/06/23 02:55:39;;;;;;;;;;;;;;;19.32;71.17;101185.63;107417;1254;108283;-68
2023/06/23 02:58:09;;;;;;;;;;;;;;;19.35;71.18;101187.40;107453;1254;99253;-67
2023/06/23 03:00:37;;;;;;;;;;;;;;;19.37;71.51;101193.62;107495;1254;99169;-66
2023/06/23 03:03:07;;;;;;;;;;;;;;;19.39;71.66;101195.45;107486;1254;113378;-65
2023/06/23 03:05:35;;;;;;;;;;;;;;;19.41;71.54;101194.68;107461;1254;108791;-65
2023/06/23 03:08:07;;;;;;;;;;;;;;;19.44;71.41;101194.21;107446;1254;108260;-66
2023/06/23 03:10:35;;;;;;;;;;;;;;;19.45;71.22;101191.64;107464;1254;99173;-66
2023/06/23 03:13:04;;;;;;;;;;;;;;;19.49;71.32;101189.39;107497;1254;99348;-65
2023/06/23 03:15:32;;;;;;;;;;;;;;;19.53;71.34;101187.27;107487;1254;112138;-65
2023/06/23 03:18:07;;;;;;;;;;;;;;;19.57;71.39;101189.52;107480;1254;108600;-66
2023/06/23 03:20:35;;;;;;;;;;;;;;;19.61;71.96;101189.55;107474;1254;107175;-67
2023/06/23 03:23:07;;;;;;;;;;;;;;;19.68;71.93;101190.19;107464;1254;99179;-66
2023/06/23 03:25:37;;;;;;;;;;;;;;;19.75;71.89;101194.50;107454;1254;99278;-65
2023/06/23 03:28:08;;;;;;;;;;;;;;;19.81;71.60;101195.11;107454;1254;112842;-66
2023/06/23 03:30:51;;;;;;;;;;;;;;;19.88;71.56;101192.19;107429;1254;109006;-67
2023/06/23 03:33:32;;;;;;;;;;;;;;;19.95;71.73;101192.77;107277;1254;108149;-65
2023/06/23 03:36:07;;;;;;;;;;;;;;;20.02;71.72;101195.36;107451;1257;99165;-66
2023/06/23 03:38:38;;;;;;;;;;;;;;;20.10;71.59;101198.77;107442;1254;99186;-65
2023/06/23 03:41:09;;;;;;;;;;;;;;;20.17;71.29;101201.77;107410;1254;113277;-66
2023/06/23 03:43:46;;;;;;;;;;;;;;;20.24;71.29;101201.06;107390;1254;109769;-64
2023/06/23 03:46:20;;;;;;;;;;;;;;;20.30;71.14;101199.45;107338;1258;108297;-66
2023/06/23 03:48:52;;;;;;;;;;;;;;;20.36;71.27;101200.13;107351;1254;99163;-66
2023/06/23 03:51:21;;;;;;;;;;;;;;;20.32;70.62;101194.77;107464;1254;99257;-67
2023/06/23 03:53:50;;;;;;;;;;;;;;;20.34;70.89;101197.65;107368;1257;111794;-67
2023/06/23 03:56:20;;;;;;;;;;;;;;;20.41;71.32;101195.82;107379;1254;109695;-66
2023/06/23 03:58:49;;;;;;;;;;;;;;;20.48;71.24;101196.86;107310;1254;108303;-66
2023/06/23 04:01:19;;;;;;;;;;;;;;;20.54;71.41;101198.08;107377;1254;99166;-65
2023/06/23 04:03:51;;;;;;;;;;;;;;;20.62;71.37;101198.89;107367;1254;99093;-65
2023/06/23 04:06:20;;;;;;;;;;;;;;;20.71;71.42;101200.50;107391;1254;112327;-66
2023/06/23 04:08:49;;;;;;;;;;;;;;;20.81;71.55;101195.55;107339;1254;109372;-66
2023/06/23 04:11:19;;;;;;;;;;;;;;;20.86;71.31;101194.71;107405;1253;107465;-66
2023/06/23 04:13:48;;;;;;;;;;;;;;;20.91;70.95;101196.86;107391;1254;99183;-66
2023/06/23 04:16:17;;;;;;;;;;;;;;;20.96;71.24;101196.84;107429;1253;99169;-65
2023/06/23 04:18:46;;;;;;;;;;;;;;;21.02;70.95;101200.30;107390;1254;113423;-66
2023/06/23 04:21:16;;;;;;;;;;;;;;;21.08;70.86;101202.52;107381;1257;109512;-68
2023/06/23 04:23:45;;;;;;;;;;;;;;;21.14;70.98;101201.90;107245;1256;107156;-68
2023/06/23 04:26:14;;;;;;;;;;;;;;;21.19;70.56;101204.24;107363;1257;98953;-66
2023/06/23 04:28:43;;;;;;;;;;;;;;;21.23;70.56;101206.64;107379;1257;99178;-65
2023/06/23 04:31:13;;;;;;;;;;;;;;;21.25;70.29;101208.55;107389;1254;113730;-66
2023/06/23 04:33:41;;;;;;;;;;;;;;;21.27;70.26;101205.92;107452;1254;111234;-66
2023/06/23 04:36:12;;;;;;;;;;;;;;;21.31;70.01;101206.20;107394;1254;107499;-65
2023/06/23 04:38:44;;;;;;;;;;;;;;;21.36;70.10;101204.48;107507;1254;99269;-66
2023/06/23 04:41:17;;;;;;;;;;;;;;;21.39;69.88;101202.36;107429;1254;99337;-65
2023/06/23 04:43:49;;;;;;;;;;;;;;;21.44;70.11;101199.09;107401;1254;111591;-65
2023/06/23 04:46:31;;;;;;;;;;;;;;;21.52;70.36;101200.23;107458;1258;111222;-66
2023/06/23 04:49:09;;;;;;;;;;;;;;;21.58;70.20;101200.67;107425;1254;106921;-67
2023/06/23 04:51:43;;;;;;;;;;;;;;;21.64;69.97;101204.70;107442;1256;99300;-67
2023/06/23 04:54:17;;;;;;;;;;;;;;;21.67;69.89;101204.34;107502;1254;99243;-68
2023/06/23 04:56:48;;;;;;;;;;;;;;;21.66;69.51;101202.40;107444;1254;112565;-65
2023/06/23 04:59:20;;;;;;;;;;;;;;;21.69;69.45;101202.50;107440;1254;109162;-65
2023/06/23 05:01:48;;;;;;;;;;;;;;;21.72;69.50;101202.81;107432;1254;108239;-66
2023/06/23 05:04:17;;;;;;;;;;;;;;;21.79;69.64;101202.65;107413;1254;99292;-66
2023/06/23 05:06:46;;;;;;;;;;;;;;;21.84;69.75;101205.77;107514;1258;99288;-66
2023/06/23 05:09:16;;;;;;;;;;;;;;;21.89;69.64;101203.61;107287;1254;112562;-66
2023/06/23 05:11:46;;;;;;;;;;;;;;;21.95;69.53;101204.23;107501;1254;109453;-66
2023/06/23 05:14:16;;;;;;;;;;;;;;;22.00;69.49;101211.20;107461;1258;107549;-65
2023/06/23 05:16:44;;;;;;;;;;;;;;;22.05;69.36;101214.73;107471;1254;99258;-67
2023/06/23 05:19:14;;;;;;;;;;;;;;;22.08;69.20;101211.81;107464;1254;99255;-65
2023/06/23 05:21:44;;;;;;;;;;;;;;;22.14;69.27;101211.20;107309;1254;113287;-66
2023/06/23 05:24:13;;;;;;;;;;;;;;;22.18;68.80;101214.77;107520;1254;108719;-65
2023/06/23 05:26:42;;;;;;;;;;;;;;;22.23;68.92;101213.86;107376;1255;108132;-65
2023/06/23 05:29:11;;;;;;;;;;;;;;;22.29;68.85;101214.31;107395;1256;99878;-65
2023/06/23 05:31:42;;;;;;;;;;;;;;;22.34;68.31;101212.37;107364;1254;99224;-66
2023/06/23 05:34:12;;;;;;;;;;;;;;;22.40;68.20;101209.79;107265;1254;113284;-66
2023/06/23 05:36:41;;;;;;;;;;;;;;;22.47;68.16;101210.39;107257;1254;110094;-65
2023/06/23 05:39:12;;;;;;;;;;;;;;;22.52;67.89;101205.34;107461;1254;107729;-64
2023/06/23 05:41:41;;;;;;;;;;;;;;;22.56;67.71;101202.95;107410;1254;99294;-68
2023/06/23 05:44:09;;;;;;;;;;;;;;;22.61;67.32;101203.39;107500;1254;99250;-67
2023/06/23 05:46:39;;;;;;;;;;;;;;;22.66;67.09;101205.60;107326;1254;112627;-65
2023/06/23 05:49:13;;;;;;;;;;;;;;;22.73;66.98;101204.58;107514;1254;109195;-65
2023/06/23 05:51:42;;;;;;;;;;;;;;;22.79;66.80;101203.41;107488;1254;108001;-67
2023/06/23 05:54:11;;;;;;;;;;;;;;;22.85;66.66;101202.73;107481;1254;99204;-66
2023/06/23 05:56:44;;;;;;;;;;;;;;;22.91;66.47;101203.17;107433;1254;99166;-66
2023/06/23 05:59:20;;;;;;;;;;;;;;;22.98;66.32;101203.98;107487;1254;113200;-66
2023/06/23 06:01:50;;;;;;;;;;;;;;;23.04;66.43;101200.55;107509;1254;109188;-71
2023/06/23 06:04:20;;;;;;;;;;;;;;;23.09;66.29;101202.91;107430;1254;108590;-65
2023/06/23 06:06:49;;;;;;;;;;;;;;;23.15;66.08;101204.23;107466;1254;99244;-66
2023/06/23 06:09:19;;;;;;;;;;;;;;;23.20;66.01;101202.11;107487;1254;99170;-66
2023/06/23 06:11:48;;;;;;;;;;;;;;;23.24;65.86;101203.77;107507;1254;112301;-65
2023/06/23 06:14:17;;;;;;;;;;;;;;;23.27;65.71;101203.67;107481;1254;109914;-66
2023/06/23 06:16:46;;;;;;;;;;;;;;;23.32;65.32;101203.16;107423;1257;107333;-66
2023/06/23 06:19:17;;;;;;;;;;;;;;;23.37;65.33;101203.60;107434;1256;99196;-66
2023/06/23 06:21:46;;;;;;;;;;;;;;;23.43;65.30;101193.58;107490;1254;99204;-66
2023/06/23 06:24:15;;;;;;;;;;;;;;;23.51;65.08;101195.30;107524;1254;113109;-66
2023/06/23 06:26:45;;;;;;;;;;;;;;;23.56;64.72;101195.42;107511;1254;109999;-67
2023/06/23 06:29:16;;;;;;;;;;;;;;;23.64;64.61;101194.19;107492;1254;108440;-66
2023/06/23 06:31:46;;;;;;;;;;;;;;;23.71;64.58;101193.30;107478;1259;99259;-67
2023/06/23 06:34:15;;;;;;;;;;;;;;;23.79;64.63;101192.57;107505;1254;99163;-66
2023/06/23 06:36:44;;;;;;;;;;;;;;;23.88;64.81;101187.65;107423;1254;113299;-66
2023/06/23 06:39:14;;;;;;;;;;;;;;;23.97;64.69;101188.38;107519;1254;109834;-67
2023/06/23 06:41:44;;;;;;;;;;;;;;;24.07;64.54;101188.56;107457;1254;108658;-67
2023/06/23 06:44:15;;;;;;;;;;;;;;;24.15;64.34;101178.65;107456;1254;99272;-67
2023/06/23 06:46:44;;;;;;;;;;;;;;;24.23;63.85;101171.98;107480;1254;99266;-66
2023/06/23 06:49:14;;;;;;;;;;;;;;;24.34;63.36;101169.40;107508;1254;112930;-66
2023/06/23 06:51:42;;;;;;;;;;;;;;;24.41;62.66;101164.54;107534;1254;109060;-70
2023/06/23 06:54:11;;;;;;;;;;;;;;;24.49;62.68;101160.44;107470;1254;108236;-67
2023/06/23 06:56:41;;;;;;;;;;;;;;;24.59;62.39;101163.73;107436;1259;99175;-67
2023/06/23 06:59:10;;;;;;;;;;;;;;;24.71;61.38;101157.63;107536;1254;99195;-66
2023/06/23 07:01:39;;;;;;;;;;;;;;;24.83;61.45;101153.96;107486;1254;112962;-67
2023/06/23 07:04:08;;;;;;;;;;;;;;;24.94;61.39;101149.23;107508;1254;109677;-67
2023/06/23 07:06:36;;;;;;;;;;;;;;;24.99;61.28;101148.17;107463;1254;108616;-68
2023/06/23 07:09:05;;;;;;;;;;;;;;;25.04;61.19;101145.35;107454;1254;99345;-66
2023/06/23 07:11:33;;;;;;;;;;;;;;;25.05;61.31;101142.58;107475;1258;99521;-66
2023/06/23 07:14:03;;;;;;;;;;;;;;;25.02;61.26;101140.07;107481;1254;112913;-67
2023/06/23 07:16:33;;;;;;;;;;;;;;;24.98;60.92;101139.66;107484;1254;108481;-66
2023/06/23 07:19:02;;;;;;;;;;;;;;;25.04;59.16;101146.90;107473;1259;108050;-66
2023/06/23 07:21:30;;;;;;;;;;;;;;;25.15;58.25;101146.86;107483;1257;99186;-66
2023/06/23 07:23:58;;;;;;;;;;;;;;;25.28;57.37;101147.80;107498;1254;99894;-68
2023/06/23 07:26:26;;;;;;;;;;;;;;;25.46;56.01;101151.14;107449;1254;114122;-65
2023/06/23 07:28:54;;;;;;;;;;;;;;;25.66;55.17;101150.58;107463;1254;110299;-67
2023/06/23 07:31:25;;;;;;;;;;;;;;;25.82;55.28;101144.42;107479;1254;108491;-65
2023/06/23 07:33:53;;;;;;;;;;;;;;;25.95;55.52;101139.99;107489;1254;99189;-66
2023/06/23 07:36:22;;;;;;;;;;;;;;;26.11;54.83;101137.31;107457;1254;99092;-65
2023/06/23 07:38:51;;;;;;;;;;;;;;;26.25;54.75;101132.53;107442;1254;113277;-67
2023/06/23 07:41:20;;;;;;;;;;;;;;;26.39;53.53;101133.70;107441;1254;109598;-67
2023/06/23 07:43:48;;;;;;;;;;;;;;;26.55;53.10;101130.71;107394;1259;108290;-69
2023/06/23 07:46:16;;;;;;;;;;;;;;;26.67;53.04;101125.02;107419;1254;99175;-67
2023/06/23 07:48:53;;;;;;;;;;;;;;;26.81;51.82;101122.16;104342;1289;635241;-68
2023/06/23 07:51:22;;;;;;;;;;;;;;;26.90;51.25;101121.04;106708;1267;95810;-66
2023/06/23 07:53:50;;;;;;;;;;;;;;;27.00;51.43;101121.17;106720;1266;95733;-66
2023/06/23 07:56:34;;;;;;;;;;;;;;;27.13;50.80;101121.02;106802;1267;108354;-69
2023/06/23 07:59:03;;;;;;;;;;;;;;;27.22;51.02;101123.10;106759;1267;109884;-65
2023/06/23 08:01:31;;;;;;;;;;;;;;;27.34;51.12;101117.65;105752;1264;1244299;-67
2023/06/23 08:03:59;;;;;;;;;;;;;;;27.48;49.98;101117.83;106805;1262;96266;-67
2023/06/23 08:06:28;;;;;;;;;;;;;;;27.60;49.24;101117.65;106775;1264;95796;-68
2023/06/23 08:08:56;;;;;;;;;;;;;;;27.70;48.61;101115.06;106778;1264;107679;-66
2023/06/23 08:11:25;;;;;;;;;;;;;;;27.78;48.71;101118.56;106786;1264;108598;-66
2023/06/23 08:13:53;;;;;;;;;;;;;;;27.87;48.46;101118.91;106776;1263;108290;-66
2023/06/23 08:16:22;;;;;;;;;;;;;;;27.95;48.56;101122.39;106740;1264;95780;-67
2023/06/23 08:18:51;;;;;;;;;;;;;;;28.05;48.25;101115.27;106781;1263;95886;-68
2023/06/23 08:21:19;;;;;;;;;;;;;;;28.18;47.73;101112.80;106818;1264;109779;-68
2023/06/23 08:23:48;;;;;;;;;;;;;;;28.28;47.28;101110.74;107614;1254;109451;-67
2023/06/23 08:26:16;;;;;;;;;;;;;;;28.37;47.35;101101.40;107571;1257;107997;-66
2023/06/23 08:28:44;;;;;;;;;;;;;;;28.47;47.11;101101.98;107558;1254;95807;-69
2023/06/23 08:31:13;;;;;;;;;;;;;;;28.57;46.62;101097.83;107543;1254;95768;-67
2023/06/23 08:33:43;;;;;;;;;;;;;;;28.65;47.00;101092.34;107565;1255;109608;-68
2023/06/23 08:36:11;;;;;;;;;;;;;;;28.77;46.98;101089.90;107570;1254;109889;-68
2023/06/23 08:38:39;;;;;;;;;;;;;;;28.90;46.47;101092.67;107528;1253;108273;-68
2023/06/23 08:41:09;;;;;;;;;;;;;;;29.02;45.36;101088.88;107490;1254;95877;-67
2023/06/23 08:43:41;;;;;;;;;;;;;;;29.11;45.16;101081.02;107392;1254;97082;-68
2023/06/23 08:46:12;;;;;;;;;;;;;;;29.21;44.28;101080.59;107512;1254;109745;-72
2023/06/23 08:48:42;;;;;;;;;;;;;;;29.32;43.93;101075.66;107537;1253;109815;-67
2023/06/23 08:51:11;;;;;;;;;;;;;;;29.43;43.45;101071.73;107553;1254;108116;-68
2023/06/23 08:53:40;;;;;;;;;;;;;;;29.52;43.52;101065.75;107564;1257;95908;-70
2023/06/23 08:56:08;;;;;;;;;;;;;;;29.61;42.90;101063.33;107588;1254;95773;-69
2023/06/23 08:58:36;;;;;;;;;;;;;;;29.73;41.91;101054.28;107398;1260;108523;-67
2023/06/23 09:01:05;;;;;;;;;;;;;;;29.87;41.04;101052.90;107602;1254;109401;-68
2023/06/23 09:03:34;;;;;;;;;;;;;;;30.01;39.96;101054.73;107484;1257;108101;-70
2023/06/23 09:06:03;;;;;;;;;;;;;;;30.14;39.73;101056.55;107302;1260;95895;-69
2023/06/23 09:08:31;;;;;;;;;;;;;;;30.28;40.00;101058.64;107392;1254;96251;-69
2023/06/23 09:10:59;;;;;;;;;;;;;;;30.42;39.50;101049.27;107474;1254;108096;-69
2023/06/23 09:13:30;;;;;;;;;;;;;;;30.59;38.88;101042.90;107541;1255;109672;-69
2023/06/23 09:15:59;;;;;;;;;;;;;;;30.74;38.67;101040.92;107613;1256;107051;-71
2023/06/23 09:18:35;;;;;;;;;;;;;;;30.94;38.47;101043.61;107608;1254;95856;-69
2023/06/23 09:21:05;;;;;;;;;;;;;;;31.12;38.45;101035.93;107719;1251;95951;-70
2023/06/23 09:23:33;;;;;;;;;;;;;;;31.33;38.06;101037.05;107640;1251;108953;-69
2023/06/23 09:26:03;;;;;;;;;;;;;;;31.52;38.01;101031.98;107596;1254;109456;-70
2023/06/23 09:28:36;;;;;;;;;;;;;;;31.75;37.14;101031.93;107589;1254;106523;-72
2023/06/23 09:31:12;;;;;;;;;;;;;;;31.97;36.33;101031.38;107513;1251;95660;-69
2023/06/23 09:33:52;;;;;;;;;;;;;;;32.12;35.74;101031.09;107566;1251;95781;-69
2023/06/23 09:36:21;;;;;;;;;;;;;;;32.37;35.33;101032.76;107581;1255;108494;-70
2023/06/23 09:38:53;;;;;;;;;;;;;;;32.59;33.98;101038.73;107575;1256;109678;-69
2023/06/23 09:41:24;;;;;;;;;;;;;;;32.79;33.32;101029.98;107499;1256;108509;-68
2023/06/23 09:43:56;;;;;;;;;;;;;;;33.00;33.30;101025.73;107530;1251;95774;-67
2023/06/23 09:46:26;;;;;;;;;;;;;;;33.23;32.62;101031.42;107596;1251;95694;-71
2023/06/23 09:48:59;;;;;;;;;;;;;;;33.45;32.34;101034.45;107510;1254;109900;-69
2023/06/23 09:51:27;;;;;;;;;;;;;;;33.69;32.11;101031.50;107541;1254;109129;-68
2023/06/23 09:53:57;;;;;;;;;;;;;;;33.89;32.35;101033.61;107528;1251;105869;-68
2023/06/23 09:56:25;;;;;;;;;;;;;;;34.16;31.68;101037.06;107554;1251;95770;-67
2023/06/23 09:58:53;;;;;;;;;;;;;;;34.34;31.51;101027.13;107601;1251;95780;-67
2023/06/23 10:01:22;;;;;;;;;;;;;;;34.52;30.70;101028.33;107508;1251;108106;-69
2023/06/23 10:03:53;;;;;;;;;;;;;;;34.77;30.53;101018.39;107614;1251;109397;-73
2023/06/23 10:06:24;;;;;;;;;;;;;;;35.04;30.05;101022.45;107541;1251;108293;-70
2023/06/23 10:08:53;;;;;;;;;;;;;;;35.18;29.41;101023.30;107549;1254;95784;-67
2023/06/23 10:11:40;;;;;;;;;;;;;;;35.34;29.35;101019.71;107548;1251;95782;-67
2023/06/23 10:14:14;;;;;;;;;;;;;;;35.56;29.24;101006.38;107510;1257;109637;-67
2023/06/23 10:16:45;;;;;;;;;;;;;;;35.83;29.49;101010.48;107494;1250;109102;-71
2023/06/23 10:19:14;;;;;;;;;;;;;;;36.22;29.41;101002.15;107531;1251;108058;-68
2023/06/23 10:21:43;;;;;;;;;;;;;;;36.48;27.94;101000.27;107519;1252;96183;-70
2023/06/23 10:24:13;;;;;;;;;;;;;;;36.71;27.73;100999.71;107551;1257;95847;-66
2023/06/23 10:26:42;;;;;;;;;;;;;;;37.10;26.94;101002.86;107537;1256;112532;-67
2023/06/23 10:29:15;;;;;;;;;;;;;;;37.58;25.99;101003.41;107530;1252;108765;-67
2023/06/23 10:31:43;;;;;;;;;;;;;;;38.03;26.29;100998.20;107536;1251;106963;-66
2023/06/23 10:34:13;;;;;;;;;;;;;;;38.45;24.63;100997.98;107552;1253;95877;-67
2023/06/23 10:36:42;;;;;;;;;;;;;;;38.61;24.66;100994.97;107568;1255;95794;-68
2023/06/23 10:39:13;;;;;;;;;;;;;;;38.96;24.67;100994.75;107595;1251;109818;-69
2023/06/23 10:41:45;;;;;;;;;;;;;;;39.38;24.40;100997.89;107568;1255;108555;-66
2023/06/23 10:44:15;;;;;;;;;;;;;;;39.81;24.47;100999.36;107537;1251;108138;-67
2023/06/23 10:46:44;;;;;;;;;;;;;;;40.21;22.74;101000.45;107528;1251;95774;-69
2023/06/23 10:49:13;;;;;;;;;;;;;;;40.39;22.47;100999.01;107565;1251;95774;-67
2023/06/23 10:51:44;;;;;;;;;;;;;;;40.49;22.08;100996.05;107562;1251;109010;-66
2023/06/23 10:54:24;;;;;;;;;;;;;;;40.47;22.90;101004.16;107503;1257;109343;-67
2023/06/23 10:56:53;;;;;;;;;;;;;;;40.42;22.78;101000.06;107448;1255;107686;-66
2023/06/23 10:59:24;;;;;;;;;;;;;;;40.51;22.95;100996.92;107486;1254;95813;-67
2023/06/23 11:02:02;;;;;;;;;;;;;;;40.69;22.84;100994.84;107595;1251;95837;-67
2023/06/23 11:04:32;;;;;;;;;;;;;;;40.91;22.36;100992.64;107639;1251;108409;-67
2023/06/23 11:07:02;;;;;;;;;;;;;;;41.25;21.99;100988.88;107680;1256;109913;-66
2023/06/23 11:10:01;;;;;;;;;;;;;;;41.57;21.50;100988.30;107604;1256;108502;-66
2023/06/23 11:12:38;;;;;;;;;;;;;;;42.04;21.48;100983.09;107468;1251;95791;-67
2023/06/23 11:15:16;;;;;;;;;;;;;;;42.43;20.13;100985.41;107571;1251;96408;-68
2023/06/23 11:17:46;;;;;;;;;;;;;;;42.46;19.78;100988.56;107574;1251;109495;-67
2023/06/23 11:20:24;;;;;;;;;;;;;;;42.50;20.42;100983.07;107541;1254;109970;-67
2023/06/23 11:23:12;;;;;;;;;;;;;;;42.72;20.19;100978.59;107506;1251;108245;-67
2023/06/23 11:25:50;;;;;;;;;;;;;;;43.11;19.39;100974.08;107564;1251;95771;-67
2023/06/23 11:28:38;;;;;;;;;;;;;;;43.25;19.18;100971.23;107529;1251;95808;-67
2023/06/23 11:31:10;;;;;;;;;;;;;;;42.92;19.70;100964.73;107631;1254;109482;-66
2023/06/23 11:33:39;;;;;;;;;;;;;;;43.02;19.89;100965.63;107654;1254;108415;-66
2023/06/23 11:36:11;;;;;;;;;;;;;;;43.44;20.04;100962.29;107602;1251;108571;-67
2023/06/23 11:38:40;;;;;;;;;;;;;;;44.04;19.32;100963.67;107547;1251;95875;-67
2023/06/23 11:41:09;;;;;;;;;;;;;;;44.43;18.88;100960.20;107509;1251;95770;-69
2023/06/23 11:43:45;;;;;;;;;;;;;;;44.93;19.84;100951.44;107508;1252;108968;-67
2023/06/23 11:46:14;;;;;;;;;;;;;;;45.48;18.95;100950.98;107551;1255;110924;-67
2023/06/23 11:48:43;;;;;;;;;;;;;;;45.81;18.00;100945.02;107593;1254;108395;-66
2023/06/23 11:51:15;;;;;;;;;;;;;;;45.89;17.29;100951.99;107645;1256;95883;-66
2023/06/23 11:53:46;;;;;;;;;;;;;;;45.56;17.27;100944.66;107672;1254;95844;-67
2023/06/23 11:56:15;;;;;;;;;;;;;;;45.17;18.10;100939.39;107599;1256;109647;-68
2023/06/23 11:58:48;;;;;;;;;;;;;;;45.40;17.96;100941.86;107603;1251;108935;-67
2023/06/23 12:01:17;;;;;;;;;;;;;;;45.71;17.39;100938.57;107673;1255;107332;-66
2023/06/23 12:03:49;;;;;;;;;;;;;;;46.01;17.81;100938.77;107678;1256;96485;-67
2023/06/23 12:06:20;;;;;;;;;;;;;;;46.48;17.82;100938.13;107618;1250;96482;-68
2023/06/23 12:08:51;;;;;;;;;;;;;;;46.58;16.88;100943.74;107498;1251;109678;-71
2023/06/23 12:11:21;;;;;;;;;;;;;;;46.67;16.83;100936.98;107520;1254;109673;-66
2023/06/23 12:13:52;;;;;;;;;;;;;;;46.71;17.29;100930.13;107622;1251;108193;-66
2023/06/23 12:16:20;;;;;;;;;;;;;;;47.13;17.15;100929.44;107641;1251;96554;-67
2023/06/23 12:18:50;;;;;;;;;;;;;;;47.28;16.56;100925.83;107617;1251;96443;-68
2023/06/23 12:21:20;;;;;;;;;;;;;;;47.45;16.61;100923.04;107652;1257;110338;-68
2023/06/23 12:23:48;;;;;;;;;;;;;;;47.78;16.82;100913.38;107572;1251;109271;-66
2023/06/23 12:26:19;;;;;;;;;;;;;;;48.26;16.94;100915.61;107510;1251;108732;-66
2023/06/23 12:28:51;;;;;;;;;;;;;;;48.37;16.60;100911.07;107612;1252;96514;-66
2023/06/23 12:31:26;;;;;;;;;;;;;;;48.84;16.17;100901.28;107513;1254;96478;-67
2023/06/23 12:33:59;;;;;;;;;;;;;;;49.34;16.09;100900.11;107537;1251;109688;-66
2023/06/23 12:36:28;;;;;;;;;;;;;;;49.43;15.35;100892.00;107671;1251;110473;-68
2023/06/23 12:38:57;;;;;;;;;;;;;;;49.40;15.10;100895.09;107520;1251;106474;-66